• Back
  •  
  • Position of Reservoir Gates
S.No.
No. of opened gates
Position of opening (In m)
Reporting Date
Reporting Time
Discharge in Cumecs
Discharge in Cusecs
Actual date and time of Gate opening
1
2
3
4
5
6
7
8
1 0 18/09/2012 8:27:04 AM 0
2 0 19/09/2012 8:38:48 AM 0
3 2 23/09/2012 8:49:39 AM 28
4 1 17/09/2012 8:24:08 AM 14
5 1 11/09/2012 9:16:52 AM 14
6 1 12/09/2012 8:43:41 AM 22
7 1 12/09/2012 9:14:45 AM 22
8 1 13/09/2012 9:04:11 AM 14
9 1 14/09/2012 8:50:00 AM 14
10 1 15/09/2012 8:14:19 AM 14
11 1 16/09/2012 8:22:09 AM 14
12 4 06/09/2012 11:09:58 AM 413.28
13 4 06/09/2012 11:09:58 AM 413.28
14 2 07/09/2012 9:46:08 AM 43.42
15 2 07/09/2012 9:46:08 AM 43.42
16 2 07/09/2012 9:53:06 AM 43.42
17 2 07/09/2012 9:53:06 AM 43.42
18 1 24/09/2012 8:35:09 AM 21.71
19 0 25/09/2012 9:33:26 AM 0
20 1 09/09/2012 8:34:04 AM 14
21 1 10/09/2012 8:50:07 AM 14
22 2 27/07/2013 8:38:39 AM 41.86
23 2 27/07/2013 10:02:39 AM 41.86
24 0 28/07/2013 8:26:39 AM 0
25 2 02/08/2013 9:19:49 AM 28.26
26 2 03/08/2013 9:43:57 AM 28.26
27 1 04/08/2013 8:30:46 AM 14.13
28 1 06/08/2013 8:15:46 AM 14.13
29 0 08/08/2013 8:30:46 AM 0
30 1 10/08/2013 8:18:46 AM 20.93
31 1 11/08/2013 8:28:00 AM 21.45
32 0 11/08/2013 4:58:02 PM 0
33 0 12/08/2013 9:47:29 AM 0
34 1 14/08/2013 11:40:58 AM 21.54
35 0 14/08/2013 10:58:58 PM 0
36 0 15/08/2013 8:07:58 AM 0
37 1 18/08/2013 8:15:54 AM 21.71
38 0 18/08/2013 10:45:54 PM 0
39 0 19/08/2013 10:34:08 AM 0
40 1 23/08/2013 8:40:12 AM 21.71
41 1 23/08/2013 8:40:12 AM 21.71
42 4 24/08/2013 8:46:12 AM 217.1
43 4 24/08/2013 9:19:12 AM 217.1
44 3 25/08/2013 7:34:12 AM 165.84
45 3 25/08/2013 7:46:12 AM 165.84
46 3 25/08/2013 7:46:12 AM 165.84
47 0 25/08/2013 3:42:06 PM 0
48 0 25/08/2013 3:42:06 PM 0
49 0 26/08/2013 7:44:37 AM 0
50 1 26/08/2013 2:47:37 PM 21.71
51 1 26/08/2013 11:14:37 PM 21.71
52 1 27/08/2013 6:20:37 AM 21.71
53 1 28/08/2013 10:59:12 AM 21.71
54 1 29/08/2013 7:59:13 AM 21.71
55 1 30/08/2013 7:47:16 AM 21.71
56 0 31/08/2013 7:43:45 AM 0
57 0 01/09/2013 7:31:45 AM 0
58 1 02/09/2013 7:49:45 AM 21.71
59 1 03/09/2013 3:58:17 PM 21.71
60 0 03/09/2013 8:25:17 PM 0
61 0 04/09/2013 7:31:17 AM 0
62 1 06/09/2013 10:16:18 AM 21.71
63 1 06/09/2013 10:22:18 AM 21.71
64 0 06/09/2013 8:01:18 PM 0
65 0 07/09/2013 8:07:18 AM 0
66 1 13/09/2013 9:30:17 PM 21.71
67 0 14/09/2013 7:00:17 AM 0
68 2 21/09/2013 2:37:17 PM 43.42
69 2 22/09/2013 8:07:17 AM 43.42
70 2 23/09/2013 7:07:17 AM 43.42
71 1 24/09/2013 12:07:18 PM 21.71
72 1 24/09/2013 12:07:18 PM 21.71
73 0 26/09/2013 6:19:18 AM 0
74 1 28/09/2013 7:06:24 AM 21.71
75 1 28/09/2013 9:27:24 AM 21.71
76 1 30/09/2013 9:18:24 AM 21.71
77 1 01/10/2013 8:15:24 AM 21.71
78 1 01/10/2013 8:15:24 AM 21.71
79 1 02/10/2013 8:16:27 AM 21.71
80 1 04/10/2013 9:01:27 AM 21.71
81 0 04/10/2013 5:43:15 PM 0
82 0 05/10/2013 8:17:48 AM 0
83 0 05/10/2013 8:47:48 AM 0
84 1 07/10/2013 6:38:48 AM 21.71
85 1 08/10/2013 7:53:48 AM 21.71
86 3 08/10/2013 7:17:48 PM 446.84
87 3 08/10/2013 7:17:48 PM 446.84
88 1 08/10/2013 11:20:48 PM 43.42
89 1 08/10/2013 11:20:48 PM 43.42
90 1 09/10/2013 6:59:48 AM 21.71
91 1 10/10/2013 7:59:48 AM 21.71
92 1 11/10/2013 9:34:48 AM 21.71
93 1 11/10/2013 10:04:48 AM 21.71
94 1 11/10/2013 12:04:48 PM 21.71
95 0 12/10/2013 8:14:00 AM 0
96 1 14/10/2013 8:28:40 AM 21.71
97 1 15/10/2013 9:01:40 AM 21.71
98 1 16/10/2013 7:52:40 AM 21.71
99 0 17/10/2013 9:13:40 AM 0
100 0 17/10/2013 1:04:40 PM 0
101 2 08/09/2014 5:03:45 PM 43.42
102 1 09/09/2014 7:51:45 AM 21.71
103 1 10/09/2014 8:03:45 AM 21.71
104 1 11/09/2014 8:07:45 AM 21.71
105 0 12/09/2014 7:23:45 AM 0
106 1 15/09/2014 10:15:19 AM 21.71
107 1 16/09/2014 7:46:34 AM 21.71
108 0 16/09/2014 10:42:34 AM 0
109 1 20/09/2014 10:58:35 AM 14.47
110 0 21/09/2014 8:02:35 AM 0
111 2 26/07/2015 8:23:17 AM 83.74
112 2 27/07/2015 7:59:17 AM 83.74
113 2 28/07/2015 7:59:17 AM 83.74
114 1 28/07/2015 2:19:17 PM 41.87
115 1 28/07/2015 2:23:17 PM 41.87
116 4 05/08/2015 7:52:58 AM 1423.58
117 1 06/08/2015 7:24:58 AM 34.72
118 1 07/08/2015 12:04:58 PM 34.72
119 0 07/08/2015 1:32:58 PM 0
120 0 08/08/2015 7:53:44 AM 0
121 1 14/08/2015 7:14:23 AM 21.71
122 1 15/08/2015 8:25:57 AM 21.71
123 0 15/08/2015 9:37:57 PM 0
124 1 18/08/2015 6:35:58 AM 21.71
125 0 19/08/2015 6:47:58 AM 0
126 0 19/08/2015 6:55:58 AM 0
127 0 19/08/2015 6:59:58 AM 0
128 1 0.5 18/09/2020 12:00:00 AM 35.85 1266.04
129 1 0.5 22/09/2020 8:00:00 AM 61 2154.21
130 1 0.3 22/09/2020 4:00:00 PM 21.71 766.69
131 1 0.3 22/09/2020 8:00:00 PM 21.71 766.69
132 1 0.3 23/09/2020 12:00:00 AM 21.71 766.69
133 2 0.5 23/09/2020 1:10:00 PM 71.7 2532.09
134 4 2 23/09/2020 5:00:00 PM 538.6 19020.66
135 2 2 23/09/2020 8:00:00 PM 280 9888.2
136 1 0.3 25/09/2020 12:00:00 AM 21.71 766.69
137 1 0.2 25/09/2020 8:00:00 PM 14.7 519.13 Opening position changed
138 1 0.2 25/09/2020 8:00:00 PM 14.7 519.13 Opening position changed
139 1 0.2 26/09/2020 12:00:00 AM 14.7 519.13
140 1 0.3 29/09/2020 12:00:00 AM 21.71 766.69
141 2 22/08/2016 3:51:04 PM 42.4
142 2 23/08/2016 7:04:23 AM 42.4
143 1 25/08/2016 9:27:19 PM 21.71
144 1 26/08/2016 9:47:19 AM 21.71
145 1 27/08/2016 7:55:19 AM 21.71
146 1 28/08/2016 7:40:10 AM 21.71
147 1 29/08/2016 9:40:10 AM 21.71
148 0 30/08/2016 7:56:10 AM 0
149 0 30/08/2016 7:56:10 AM 0
150 1 02/09/2016 10:42:40 AM 21.71
151 0 03/09/2016 9:05:01 AM 0
152 3 0.5 26/09/2021 8:00:00 AM 107.5 3796.36 6/09/2021
153 3 0.5 26/09/2021 8:00:00 AM 107.5 3796.36 26/09/2021
154 1 15/09/2016 10:31:30 PM 21.71
155 1 17/09/2016 5:19:30 AM 21.71
156 1 0.3 27/09/2021 8:00:00 PM 21.71 766.69
157 1 0.3 28/09/2021 8:00:00 AM 21.71 766.69 28/09/2021
158 0 0 28/09/2021 12:00:00 PM 0 0 28/09/2021
159 1 19/09/2016 5:00:38 PM 21.71
160 0 21/09/2016 12:44:38 AM 0
161 1 21/09/2016 1:00:38 PM 21.71
162 2 1 01/10/2021 8:00:00 PM 140.6 4965.29
163 0 23/09/2016 12:33:54 PM 0
164 1 25/09/2016 7:47:21 AM 21.71
165 0 26/09/2016 10:54:19 AM 0
166 1 28/09/2016 5:18:19 PM 21.71
167 0 29/09/2016 4:10:19 AM 0
168 1 30/09/2016 10:27:19 AM 21.71
169 1 01/10/2016 7:35:19 AM 21.71
170 1 05/10/2016 11:32:49 PM 21.71
171 0 07/10/2016 11:54:51 AM 0
172 1 08/10/2016 9:48:23 AM 21.71
173 0 13/10/2016 8:15:33 AM 0
174 4 1 09/08/2019 4:00:00 PM 252.7 8924.1
175 1 0.3 09/08/2019 1:10:00 AM 20.07 708.77
176 2 0.75 09/08/2019 7:42:00 AM 40.14 1417.54
177 4 1.2 09/08/2019 8:00:00 PM 252.7 8924.1
178 4 1.2 10/08/2019 12:22:00 AM 252.7 8924.1
179 0 0 10/08/2019 3:30:00 AM 0 0 All gate closed.
180 1 0.3 15/08/2019 11:00:00 AM 20 706.3
181 2 0.6 16/08/2019 9:45:00 PM 41.1 1451.45
182 2 0.6 17/08/2019 12:14:00 AM 41.1 1451.45
183 0 0 17/08/2019 8:00:00 AM 0 0 all gates are closed
184 1 0.3 21/08/2019 4:00:00 PM 21.68 765.63
185 1 0.3 22/08/2019 12:01:00 AM 21.68 765.63 gate opening since 21/8/2019at 4pm
186 0 0 22/08/2019 12:00:00 PM 0 0 all gates are closed
187 1 0.3 24/08/2019 10:30:00 PM 31.68 1118.78
188 1 0.3 25/08/2019 12:01:00 AM 31.68 1118.78
189 1 0.6 25/08/2019 8:00:00 AM 42.92 1515.72
190 2 0.6 25/08/2019 5:30:00 PM 85.84 3031.44
191 3 0.5 26/08/2019 12:15:00 AM 122 4308.43
192 2 0.3 27/08/2019 12:03:00 AM 41.7 1472.64
193 2 0.6 27/08/2019 8:00:00 AM 85 3001.77
194 2 1 27/08/2019 4:00:00 PM 126.1 4453.22
195 2 1 28/08/2019 12:01:00 AM 126.1 4454.28
196 0 0 28/08/2019 8:00:00 AM 0 0 All gates closed at 8 am Today
197 1 0.5 07/09/2019 12:01:00 AM 35.85 1266.04
198 1 0.5 06/09/2019 8:00:00 PM 35.85 1266.04
199 1 0.5 06/09/2019 8:00:00 PM 35.85 1266.04
200 1 0.3 07/09/2019 11:40:00 AM 21.54 760.69
201 1 0.3 08/09/2019 8:00:00 AM 21.54 760.69
202 1 0.3 09/09/2019 3:00:00 AM 21.54 760.69
203 2 0.6 09/09/2019 12:00:00 PM 85.84 3031.44
204 3 0.8 09/09/2019 4:00:00 PM 169.6 5989.42
205 1 0.6 09/09/2019 7:00:00 PM 42.92 1515.72
206 4 1 13/09/2019 10:00:00 AM 281.2 9930.58
207 1 0.6 14/09/2019 12:12:00 PM 41.69 1472.28
208 4 1 14/09/2019 12:01:00 AM 277.8 9811.57
209 0 0 14/09/2019 4:00:00 PM 0 0 All gates are closed
210 0 0 15/09/2019 9:00:00 AM 0 0 All Gates are closed
211 4 1 16/09/2019 11:30:00 AM 281.2 9930.58
212 1 0.6 16/09/2019 9:00:00 PM 41.87 1478.64
213 1 1 17/09/2019 12:01:00 AM 41.87 1478.64
214 1 0.3 18/09/2019 8:00:00 PM 21.63 763.86
215 0 0 20/09/2019 12:10:00 AM 0 0 all gates are closed
216 1 0.3 19/09/2019 8:15:00 AM 21.54 760.69
217 4 0.6 19/09/2019 8:00:00 PM 171.6 6062.88
218 4 0.6 20/09/2019 12:01:00 AM 171.6 6062.88
219 1 0.3 18/09/2019 12:00:00 PM 21.63 763.86
220 2 0.6 19/09/2019 4:00:00 PM 85.84 3031.44
221 2 0.8 20/09/2019 7:00:00 PM 111.8 3948.22
222 2 0.8 20/09/2019 9:00:00 PM 111.8 3948.22
223 0 0 21/09/2019 9:00:00 AM 0 0 All Gates are closed.
224 2 0.45 24/09/2019 12:01:00 AM 64.63 2282.41
225 2 0.6 25/09/2019 4:30:00 PM 85.49 3019.08
226 1 0.3 25/09/2019 8:00:00 PM 21.46 757.86
227 3 1 21/09/2019 9:00:00 PM 210 7418.27
228 0 0 22/09/2019 10:00:00 AM 0 0 All Gates are closed
229 3 1 22/09/2019 12:01:00 AM 210 7416.15
230 1 0.3 24/09/2019 12:00:00 PM 21 741.62
231 2 0.45 23/09/2019 4:00:00 PM 64.63 2282.41
232 2 0.45 23/09/2019 4:00:00 PM 64.63 2282.41
233 1 0.3 26/09/2019 12:01:00 AM 21.46 757.86
234 0 0 26/09/2019 8:00:00 PM 0 0 All gates are closed
235 0 0 29/09/2019 9:00:00 AM 0 0 All Gates are closed.
236 1 0.3 30/09/2019 4:00:00 PM 21.7 766.34
237 0 0 29/09/2019 11:00:00 AM 0 0 All Gates are closed.
238 1 0.3 01/10/2019 8:00:00 AM 21.71 766.69
239 1 0.3 02/10/2019 10:00:00 AM 21.71 766.69
240 0 0 05/10/2019 6:30:00 PM 0 0 All gates are closed
241 1 0.3 02/10/2019 10:00:00 AM 21.71 766.69
242 0 0 02/10/2019 4:00:00 PM 0 0 all gates are closed
243 1 0.3 04/10/2019 8:00:00 PM 21.71 766.69
244 1 0.3 05/10/2019 10:00:00 AM 21.71 766.69
245 1 0.3 07/10/2019 8:00:00 AM 21.71 766.69
246 1 0.3 10/10/2019 4:00:00 PM 21.71 766.69
Powered by © Water Resources Department (MP). All Rights Reserved.